weather.gov     
National Weather Service

Terminal Aerodrome Forecast
NWS Homepage
This page is being discontinued on March 12, 2014.
The same data is available at this site. Please update your bookmarks.
Thank you, and we apologize for the inconvenience.
Please send an email to SR-SRH.Webmaster@noaa.gov with any concerns.


Current Version
Previous Version:    01  02  03  04  05  06  07  08  09  10  11  12  13  14  15  16  17  18  19  20  21  22  23  24  
[Printable]
445
FTUS42 KGSP 231100
TAFHKY
TAF
KHKY 231127Z 2312/2412 31004KT P6SM VCSH SCT100 BKN250
     FM231800 00000KT P6SM VCTS BKN045CB
     FM232100 00000KT P6SM BKN050 PROB30 2321/2403 4SM TSRA BKN040CB
     FM240500 05005KT P6SM VCSH BKN014
     FM240800 06005KT 5SM BR BKN009=


U.S. Dept. of Commerce
NOAA National Weather Service
1325 East West Highway
Silver Spring, MD 20910
E-mail: w-nws.webmaster@noaa.gov
Page last modified: May 16, 2007
NATIONAL WEATHER SERVICE: for Safety, for Work, for Fun - FOR LIFE